createdAt,value
2018-03-16T00:01:30.651Z,61.30
2018-03-16T00:03:59.425Z,62.05
2018-03-16T00:06:28.185Z,61.99
2018-03-16T00:08:56.547Z,60.52
2018-03-16T00:11:24.924Z,59.57
2018-03-16T00:13:53.276Z,61.19
2018-03-16T00:16:21.639Z,60.07
2018-03-16T00:18:50.417Z,60.32
2018-03-16T00:21:19.176Z,58.78
2018-03-16T00:23:47.547Z,59.03
2018-03-16T00:26:15.957Z,60.16
2018-03-16T00:28:44.312Z,59.26
2018-03-16T00:31:12.683Z,60.46
2018-03-16T00:33:41.080Z,62.14
2018-03-16T00:36:09.431Z,60.75
2018-03-16T00:38:37.850Z,59.87
2018-03-16T00:41:06.290Z,58.92
2018-03-16T00:43:34.642Z,60.30
2018-03-16T00:46:02.999Z,61.56
2018-03-16T00:48:31.392Z,61.84
2018-03-16T00:50:59.773Z,61.75
2018-03-16T00:53:28.998Z,62.69
2018-03-16T00:55:57.825Z,62.04
2018-03-16T00:58:26.212Z,62.18
2018-03-16T01:00:54.591Z,61.78
2018-03-16T01:03:22.971Z,62.99
2018-03-16T01:05:51.352Z,60.55
2018-03-16T01:08:19.739Z,60.45
2018-03-16T01:10:48.534Z,61.37
2018-03-16T01:13:16.895Z,59.11
2018-03-16T01:15:45.275Z,59.87
2018-03-16T01:18:13.663Z,59.59
2018-03-16T01:20:47.383Z,59.05
2018-03-16T01:23:15.786Z,59.77
2018-03-16T01:25:44.163Z,60.49
2018-03-16T01:28:12.560Z,59.93
2018-03-16T01:30:40.940Z,59.95
2018-03-16T01:33:09.295Z,61.97
2018-03-16T01:35:37.655Z,61.43
2018-03-16T01:38:06.042Z,60.32
2018-03-16T01:40:34.991Z,60.68
2018-03-16T01:43:03.878Z,59.80
2018-03-16T01:45:32.266Z,57.82
2018-03-16T01:48:01.044Z,59.61
2018-03-16T01:50:29.437Z,58.94
2018-03-16T01:53:11.379Z,59.65
2018-03-16T01:55:39.740Z,61.02
2018-03-16T01:58:08.101Z,61.52
2018-03-16T02:00:36.888Z,61.02
2018-03-16T02:03:05.647Z,60.71
2018-03-16T02:05:34.015Z,59.90
2018-03-16T02:08:02.444Z,59.22
2018-03-16T02:10:31.207Z,59.36
2018-03-16T02:12:59.560Z,59.36
2018-03-16T02:15:28.321Z,59.48
2018-03-16T02:17:56.691Z,57.89
2018-03-16T02:20:25.066Z,57.24
2018-03-16T02:22:53.435Z,56.75
2018-03-16T02:25:22.188Z,56.40
2018-03-16T02:27:50.605Z,56.55
2018-03-16T02:30:19.382Z,57.64
2018-03-16T02:32:47.768Z,58.14
2018-03-16T02:35:16.562Z,57.61
2018-03-16T02:37:44.996Z,58.05
2018-03-16T02:40:13.392Z,58.43
2018-03-16T02:42:41.736Z,58.71
2018-03-16T02:45:10.141Z,58.85
2018-03-16T02:47:38.521Z,57.99
2018-03-16T02:50:06.898Z,57.38
2018-03-16T02:52:35.309Z,57.04
2018-03-16T02:55:04.063Z,56.55
2018-03-16T02:57:32.491Z,56.34
2018-03-16T03:00:00.900Z,57.34
2018-03-16T03:02:29.261Z,56.36
2018-03-16T03:04:57.684Z,57.17
2018-03-16T03:07:26.097Z,57.04
2018-03-16T03:09:54.848Z,57.28
2018-03-16T03:12:23.229Z,57.00
2018-03-16T03:14:51.643Z,57.53
2018-03-16T03:17:20.499Z,56.82
2018-03-16T03:19:48.860Z,55.77
2018-03-16T03:22:17.254Z,57.81
2018-03-16T03:24:45.604Z,56.99
2018-03-16T03:27:13.970Z,56.48
2018-03-16T03:29:42.359Z,55.88
2018-03-16T03:32:10.728Z,55.89
2018-03-16T03:34:39.116Z,55.27
2018-03-16T03:37:07.522Z,55.20
2018-03-16T03:39:35.896Z,56.00
2018-03-16T03:42:04.295Z,55.13
2018-03-16T03:44:32.707Z,55.61
2018-03-16T03:47:01.472Z,55.81
2018-03-16T03:49:30.247Z,57.49
2018-03-16T03:51:58.625Z,56.52
2018-03-16T03:54:27.035Z,55.95
2018-03-16T03:56:55.896Z,56.26
2018-03-16T03:59:24.296Z,55.92
2018-03-16T04:01:53.251Z,57.92
2018-03-16T04:04:21.643Z,57.33
2018-03-16T04:06:50.031Z,57.58
2018-03-16T04:09:18.431Z,57.73
2018-03-16T04:11:47.197Z,56.46
2018-03-16T04:14:15.607Z,56.64
2018-03-16T04:16:43.972Z,58.91
2018-03-16T04:19:12.354Z,58.92
2018-03-16T04:21:40.763Z,58.67
2018-03-16T04:24:09.128Z,58.60
2018-03-16T04:26:37.496Z,58.16
2018-03-16T04:29:06.276Z,57.50
2018-03-16T04:31:35.047Z,57.35
2018-03-16T04:34:03.459Z,56.60
2018-03-16T04:36:31.825Z,57.62
2018-03-16T04:39:00.600Z,57.69
2018-03-16T04:41:28.971Z,56.73
2018-03-16T04:43:57.368Z,58.16
2018-03-16T04:46:26.242Z,59.22
2018-03-16T04:48:54.607Z,57.51
2018-03-16T04:51:22.971Z,57.82
2018-03-16T04:53:51.332Z,56.69
2018-03-16T04:56:19.710Z,57.80
2018-03-16T04:58:48.100Z,59.53
2018-03-16T05:01:16.504Z,56.84
2018-03-16T05:03:44.896Z,56.20
2018-03-16T05:06:13.275Z,57.14
2018-03-16T05:08:41.639Z,59.13
2018-03-16T05:11:10.017Z,58.71
2018-03-16T05:13:38.420Z,59.08
2018-03-16T05:16:07.209Z,58.66
2018-03-16T05:18:35.998Z,58.81
2018-03-16T05:21:04.786Z,58.50
2018-03-16T05:23:33.674Z,58.56
2018-03-16T05:26:02.040Z,58.45
2018-03-16T05:28:30.410Z,59.43
2018-03-16T05:30:58.814Z,57.93
2018-03-16T05:33:27.708Z,58.65
2018-03-16T05:35:56.475Z,57.48
2018-03-16T05:38:24.831Z,59.07
2018-03-16T05:40:53.190Z,59.40
2018-03-16T05:43:21.571Z,57.68
2018-03-16T05:45:49.952Z,57.48
2018-03-16T05:48:18.316Z,57.92
2018-03-16T05:50:46.694Z,58.39
2018-03-16T05:53:15.090Z,59.20
2018-03-16T05:55:43.512Z,59.70
2018-03-16T05:58:11.903Z,59.48
2018-03-16T06:00:40.290Z,58.31
2018-03-16T06:03:08.681Z,58.33
2018-03-16T06:05:37.061Z,58.36
2018-03-16T06:08:05.426Z,57.49
2018-03-16T06:10:35.072Z,58.24
2018-03-16T06:13:03.432Z,57.63
2018-03-16T06:15:31.861Z,57.56
2018-03-16T06:18:00.223Z,56.60
2018-03-16T06:20:28.608Z,57.07
2018-03-16T06:22:57.740Z,56.55
2018-03-16T06:25:26.537Z,54.90
2018-03-16T06:27:55.325Z,54.36
2018-03-16T06:30:24.110Z,55.40
2018-03-16T06:32:52.873Z,55.11
2018-03-16T06:35:21.335Z,55.48
2018-03-16T06:37:49.691Z,55.83
2018-03-16T06:40:18.059Z,54.77
2018-03-16T06:42:46.424Z,55.09
2018-03-16T06:45:17.368Z,56.68
2018-03-16T06:47:45.755Z,57.26
2018-03-16T06:50:15.223Z,56.21
2018-03-16T06:52:43.609Z,55.92
2018-03-16T06:55:12.047Z,55.91
2018-03-16T06:57:40.407Z,54.95
2018-03-16T07:00:08.786Z,53.91
2018-03-16T07:02:37.195Z,53.77
2018-03-16T07:05:05.572Z,55.15
2018-03-16T07:07:34.040Z,56.60
2018-03-16T07:10:02.443Z,56.48
2018-03-16T07:12:31.729Z,55.52
2018-03-16T07:15:17.786Z,54.14
2018-03-16T07:17:46.163Z,57.69
2018-03-16T07:20:14.547Z,58.21
2018-03-16T07:22:42.915Z,56.38
2018-03-16T07:25:11.291Z,55.96
2018-03-16T07:27:39.669Z,55.87
2018-03-16T07:30:08.431Z,55.25
2018-03-16T07:32:36.814Z,55.90
2018-03-16T07:35:05.246Z,55.26
2018-03-16T07:37:33.581Z,55.58
2018-03-16T07:40:02.360Z,55.97
2018-03-16T07:42:31.132Z,56.50
2018-03-16T07:44:59.496Z,54.72
2018-03-16T07:47:27.892Z,55.91
2018-03-16T07:49:56.705Z,55.69
2018-03-16T07:52:25.084Z,55.89
2018-03-16T07:54:53.476Z,56.75
2018-03-16T07:57:21.850Z,55.27
2018-03-16T07:59:50.300Z,55.24
2018-03-16T08:02:18.675Z,55.62
2018-03-16T08:04:47.112Z,55.49
2018-03-16T08:07:15.499Z,54.04
2018-03-16T08:09:43.863Z,53.54
2018-03-16T08:12:12.303Z,53.20
2018-03-16T08:14:40.717Z,53.08
2018-03-16T08:17:09.084Z,53.08
2018-03-16T08:19:37.867Z,54.37
2018-03-16T08:22:06.709Z,53.93
2018-03-16T08:24:35.074Z,53.78
2018-03-16T08:27:03.449Z,53.84
2018-03-16T08:29:31.811Z,53.64
2018-03-16T08:32:00.183Z,52.87
2018-03-16T08:34:28.542Z,52.69
2018-03-16T08:36:57.403Z,52.69
2018-03-16T08:39:25.792Z,53.08
2018-03-16T08:41:54.180Z,53.95
2018-03-16T08:44:22.650Z,53.54
2018-03-16T08:46:51.103Z,54.11
2018-03-16T08:49:19.473Z,53.42
2018-03-16T08:51:48.372Z,52.73
2018-03-16T08:54:16.751Z,54.09
2018-03-16T08:56:45.120Z,54.46
2018-03-16T08:59:13.530Z,54.69
2018-03-16T09:01:42.026Z,52.93
2018-03-16T09:04:10.397Z,51.84
2018-03-16T09:06:38.757Z,51.15
2018-03-16T09:09:07.118Z,52.21
2018-03-16T09:11:35.541Z,51.29
2018-03-16T09:14:03.932Z,52.68
2018-03-16T09:16:32.700Z,51.98
2018-03-16T09:19:01.091Z,52.79
2018-03-16T09:21:29.464Z,52.78
2018-03-16T09:23:57.820Z,51.70
2018-03-16T09:26:26.203Z,52.16
2018-03-16T09:28:54.574Z,51.68
2018-03-16T09:31:22.935Z,51.72
2018-03-16T09:33:51.315Z,53.02
2018-03-16T09:36:19.684Z,53.57
2018-03-16T09:38:48.050Z,55.01
2018-03-16T09:41:16.479Z,54.61
2018-03-16T09:43:44.871Z,55.16
2018-03-16T09:46:13.320Z,54.80
2018-03-16T09:48:41.708Z,56.17
2018-03-16T09:51:10.115Z,54.93
2018-03-16T09:53:38.467Z,55.39
2018-03-16T09:56:06.850Z,55.21
2018-03-16T09:58:35.229Z,55.65
2018-03-16T10:01:03.596Z,55.85
2018-03-16T10:03:31.987Z,54.26
2018-03-16T10:06:00.365Z,54.99
2018-03-16T10:08:28.776Z,55.44
2018-03-16T10:10:57.181Z,55.67
2018-03-16T10:13:25.561Z,55.78
2018-03-16T10:15:53.932Z,55.78
2018-03-16T10:18:22.701Z,55.09
2018-03-16T10:20:51.083Z,52.74
2018-03-16T10:23:19.860Z,54.27
2018-03-16T10:25:48.230Z,54.50
2018-03-16T10:28:16.593Z,53.36
2018-03-16T10:33:20.026Z,54.03
2018-03-16T10:35:48.412Z,53.78
2018-03-16T10:38:16.879Z,53.21
2018-03-16T10:40:45.348Z,54.25
2018-03-16T10:43:13.712Z,55.29
2018-03-16T10:45:42.129Z,55.25
2018-03-16T10:48:10.495Z,56.11
2018-03-16T10:50:38.864Z,56.70
2018-03-16T10:53:07.234Z,56.84
2018-03-16T10:55:35.607Z,56.93
2018-03-16T10:58:03.972Z,55.95
2018-03-16T11:00:38.007Z,55.98
2018-03-16T11:03:08.154Z,55.78
2018-03-16T11:05:42.003Z,56.06
2018-03-16T11:08:10.361Z,55.22
2018-03-16T11:10:39.143Z,53.85
2018-03-16T11:13:07.911Z,54.94
2018-03-16T11:15:36.322Z,56.92
2018-03-16T11:18:05.094Z,55.13
2018-03-16T11:20:33.469Z,56.59
2018-03-16T11:23:01.832Z,56.46
2018-03-16T11:25:30.312Z,56.56
2018-03-16T11:27:58.675Z,57.19
2018-03-16T11:30:27.063Z,56.23
2018-03-16T11:32:55.438Z,56.74
2018-03-16T11:35:23.825Z,58.57
2018-03-16T11:37:52.199Z,58.73
2018-03-16T11:40:20.587Z,58.62
2018-03-16T11:42:48.943Z,59.42
2018-03-16T11:45:17.355Z,60.67
2018-03-16T11:47:45.737Z,61.12
2018-03-16T11:50:14.247Z,60.62
2018-03-16T11:52:42.683Z,61.29
2018-03-16T11:55:11.078Z,62.58
2018-03-16T11:57:39.535Z,62.97
2018-03-16T12:00:07.903Z,61.79
2018-03-16T12:02:36.281Z,61.25
2018-03-16T12:05:04.644Z,60.02
2018-03-16T12:07:33.032Z,60.13
2018-03-16T12:10:01.872Z,61.65
2018-03-16T12:12:30.739Z,60.78
2018-03-16T12:14:59.108Z,61.37
2018-03-16T12:17:27.499Z,61.67
2018-03-16T12:19:55.937Z,60.74
2018-03-16T12:22:24.292Z,60.64
2018-03-16T12:24:53.156Z,61.39
2018-03-16T12:27:22.058Z,61.82
2018-03-16T12:29:50.412Z,61.79
2018-03-16T12:32:18.799Z,62.05
2018-03-16T12:34:47.188Z,62.96
2018-03-16T12:37:15.560Z,65.49
2018-03-16T12:39:44.292Z,64.91
2018-03-16T12:42:12.685Z,64.33
2018-03-16T12:44:41.045Z,63.49
2018-03-16T12:47:09.416Z,61.87
2018-03-16T12:49:37.779Z,62.75
2018-03-16T12:52:06.637Z,62.23
2018-03-16T12:54:34.988Z,62.65
2018-03-16T12:57:03.359Z,60.65
2018-03-16T12:59:31.718Z,61.42
2018-03-16T13:02:00.500Z,62.19
2018-03-16T13:04:29.269Z,61.80
2018-03-16T13:06:57.636Z,61.44
2018-03-16T13:09:26.006Z,61.11
2018-03-16T13:11:54.498Z,61.65
2018-03-16T13:14:22.851Z,62.00
2018-03-16T13:16:51.215Z,61.60
2018-03-16T13:19:19.676Z,62.70
2018-03-16T13:21:48.028Z,61.46
2018-03-16T13:24:16.415Z,60.27
2018-03-16T13:26:45.181Z,60.63
2018-03-16T13:29:13.558Z,62.28
2018-03-16T13:31:41.929Z,61.29
2018-03-16T13:34:10.280Z,61.26
2018-03-16T13:36:38.688Z,60.23
2018-03-16T13:39:07.060Z,59.84
2018-03-16T13:41:35.516Z,59.38
2018-03-16T13:44:03.896Z,59.65
2018-03-16T13:46:32.272Z,60.66
2018-03-16T13:49:00.642Z,62.20
2018-03-16T13:51:29.019Z,61.89
2018-03-16T13:53:57.379Z,60.62
2018-03-16T13:56:26.148Z,59.57
2018-03-16T13:58:54.506Z,59.46
2018-03-16T14:01:22.868Z,61.45
2018-03-16T14:03:51.238Z,62.05
2018-03-16T14:06:19.642Z,61.82
2018-03-16T14:08:48.009Z,61.60
2018-03-16T14:11:16.405Z,61.46
2018-03-16T14:13:44.767Z,60.54
2018-03-16T14:16:13.186Z,63.56
2018-03-16T14:18:41.554Z,62.73
2018-03-16T14:21:09.938Z,61.97
2018-03-16T14:23:38.312Z,61.14
2018-03-16T14:26:06.700Z,62.82
2018-03-16T14:28:35.129Z,63.18
2018-03-16T14:31:04.396Z,62.35
2018-03-16T14:33:33.155Z,62.91
2018-03-16T14:36:01.515Z,62.84
2018-03-16T14:38:29.904Z,61.75
2018-03-16T14:40:58.284Z,63.24
2018-03-16T14:43:26.644Z,64.12
2018-03-16T14:45:55.036Z,63.68
2018-03-16T14:48:23.408Z,62.86
2018-03-16T14:50:51.782Z,62.04
2018-03-16T14:53:20.148Z,62.73
2018-03-16T14:55:48.646Z,61.10
2018-03-16T14:58:17.046Z,61.11
2018-03-16T15:00:45.406Z,60.72
2018-03-16T15:03:13.762Z,62.32
2018-03-16T15:05:42.172Z,60.18
2018-03-16T15:08:10.726Z,60.58
2018-03-16T15:10:39.126Z,62.68
2018-03-16T15:13:07.488Z,61.01
2018-03-16T15:15:35.863Z,59.59
2018-03-16T15:18:04.217Z,59.68
2018-03-16T15:20:32.596Z,63.97
2018-03-16T15:23:00.967Z,59.78
2018-03-16T15:25:29.741Z,60.75
2018-03-16T15:27:58.496Z,61.28
2018-03-16T15:30:26.915Z,59.78
2018-03-16T15:32:55.702Z,58.95
2018-03-16T15:35:24.090Z,59.46
2018-03-16T15:37:52.863Z,59.87
2018-03-16T15:40:21.723Z,58.81
2018-03-16T15:44:10.530Z,57.78
2018-03-16T15:46:39.305Z,55.93
2018-03-16T15:49:08.288Z,56.27
2018-03-16T15:51:36.661Z,56.18
2018-03-16T15:54:05.081Z,55.59
2018-03-16T15:56:33.483Z,56.18
2018-03-16T15:59:01.845Z,56.48
2018-03-16T16:01:30.280Z,54.42
2018-03-16T16:03:58.636Z,53.19
2018-03-16T16:06:27.024Z,53.96
2018-03-16T16:08:55.390Z,56.23
2018-03-16T16:11:23.777Z,54.92
2018-03-16T16:13:52.279Z,55.01
2018-03-16T16:16:20.717Z,54.22
2018-03-16T16:18:49.073Z,54.41
2018-03-16T16:21:17.490Z,56.07
2018-03-16T16:23:45.852Z,54.68
2018-03-16T16:26:14.216Z,54.46
2018-03-16T16:28:42.568Z,53.52
2018-03-16T16:31:10.936Z,53.50
2018-03-16T16:33:39.330Z,55.05
2018-03-16T16:36:08.170Z,54.24
2018-03-16T16:38:36.499Z,54.20
2018-03-16T16:41:05.268Z,54.68
2018-03-16T16:43:33.630Z,55.67
2018-03-16T16:46:02.054Z,54.24
2018-03-16T16:48:30.826Z,56.69
2018-03-16T16:50:59.186Z,55.81
2018-03-16T16:53:27.556Z,56.51
2018-03-16T16:55:55.934Z,55.87
2018-03-16T16:58:24.302Z,55.11
2018-03-16T17:00:52.665Z,55.96
2018-03-16T17:03:21.044Z,57.04
2018-03-16T17:05:49.440Z,54.67
2018-03-16T17:08:17.797Z,54.89
2018-03-16T17:10:46.220Z,54.77
2018-03-16T17:13:14.616Z,55.06
2018-03-16T17:15:43.389Z,55.02
2018-03-16T17:18:12.172Z,54.27
2018-03-16T17:20:40.550Z,56.33
2018-03-16T17:23:09.040Z,54.41
2018-03-16T17:25:37.436Z,54.61
2018-03-16T17:28:06.453Z,54.04
2018-03-16T17:30:34.912Z,52.27
2018-03-16T17:33:03.678Z,53.52
2018-03-16T17:35:32.041Z,52.66
2018-03-16T17:38:00.435Z,54.01
2018-03-16T17:40:28.917Z,52.74
2018-03-16T17:42:57.293Z,54.22
2018-03-16T17:45:25.676Z,53.65
2018-03-16T17:47:54.088Z,53.35
2018-03-16T17:50:22.471Z,52.22
2018-03-16T17:52:50.813Z,53.38
2018-03-16T17:55:19.348Z,53.73
2018-03-16T17:57:48.273Z,54.99
2018-03-16T18:00:16.653Z,56.29
2018-03-16T18:02:45.120Z,54.63
2018-03-16T18:05:13.576Z,53.41
2018-03-16T18:07:41.979Z,55.29
2018-03-16T18:10:10.419Z,53.70
2018-03-16T18:12:39.263Z,52.58
2018-03-16T18:15:07.653Z,54.06
2018-03-16T18:17:36.013Z,52.27
2018-03-16T18:20:04.406Z,53.78
2018-03-16T18:22:32.806Z,54.34
2018-03-16T18:25:01.608Z,52.25
2018-03-16T18:27:30.061Z,52.56
2018-03-16T18:29:58.546Z,51.78
2018-03-16T18:32:27.102Z,52.14
2018-03-16T18:34:55.465Z,51.70
2018-03-16T18:37:23.869Z,52.10
2018-03-16T18:39:52.542Z,50.86
2018-03-16T18:42:21.051Z,50.73
2018-03-16T18:44:49.541Z,51.96
2018-03-16T18:47:18.086Z,51.42
2018-03-16T18:49:46.464Z,51.73
2018-03-16T18:52:14.996Z,52.23
2018-03-16T18:54:43.398Z,53.13
2018-03-16T18:57:11.843Z,53.13
2018-03-16T18:59:40.364Z,53.75
2018-03-16T19:02:08.784Z,54.92
2018-03-16T19:04:37.156Z,54.97
2018-03-16T19:07:05.565Z,56.98
2018-03-16T19:09:33.967Z,57.63
2018-03-16T19:12:02.403Z,56.70
2018-03-16T19:14:30.968Z,56.64
2018-03-16T19:16:59.346Z,56.67
2018-03-16T19:19:27.719Z,56.76
2018-03-16T19:21:56.140Z,55.05
2018-03-16T19:24:24.908Z,54.86
2018-03-16T19:26:53.271Z,54.75
2018-03-16T19:29:21.686Z,54.09
2018-03-16T19:31:50.471Z,53.07
2018-03-16T19:34:19.699Z,52.69
2018-03-16T19:36:48.452Z,54.01
2018-03-16T19:39:16.855Z,53.94
2018-03-16T19:41:45.642Z,52.36
2018-03-16T19:44:14.387Z,52.34
2018-03-16T19:46:42.892Z,52.66
2018-03-16T19:49:11.262Z,52.36
2018-03-16T19:51:39.636Z,51.90
2018-03-16T19:54:08.003Z,51.26
2018-03-16T19:56:36.419Z,49.86
2018-03-16T19:59:04.794Z,50.29
2018-03-16T20:01:33.560Z,50.05
2018-03-16T20:04:02.053Z,48.62
2018-03-16T20:06:30.897Z,50.18
2018-03-16T20:08:59.603Z,49.80
2018-03-16T20:11:27.974Z,50.38
2018-03-16T20:13:56.323Z,49.04
2018-03-16T20:16:24.699Z,48.09
2018-03-16T20:18:53.430Z,47.35
2018-03-16T20:21:21.784Z,47.50
2018-03-16T20:24:50.641Z,49.11
2018-03-16T20:27:19.017Z,48.30
2018-03-16T20:29:47.377Z,48.17
2018-03-16T20:32:15.964Z,46.77
2018-03-16T20:34:44.342Z,47.04
2018-03-16T20:37:12.737Z,45.69
2018-03-16T20:39:41.121Z,45.49
2018-03-16T20:42:09.497Z,46.13
2018-03-16T20:44:38.252Z,46.53
2018-03-16T20:47:06.612Z,48.36
2018-03-16T20:49:35.024Z,47.40
2018-03-16T20:52:03.390Z,47.07
2018-03-16T20:54:31.745Z,48.38
2018-03-16T20:57:00.112Z,45.88
2018-03-16T20:59:28.480Z,46.92
2018-03-16T21:01:56.882Z,46.86
2018-03-16T21:04:25.239Z,46.07
2018-03-16T21:06:53.598Z,45.91
2018-03-16T21:09:22.362Z,45.60
2018-03-16T21:11:50.716Z,46.02
2018-03-16T21:14:19.070Z,45.41
2018-03-16T21:16:47.481Z,45.88
2018-03-16T21:19:15.849Z,45.31
2018-03-16T21:21:44.204Z,45.91
2018-03-16T21:24:12.568Z,45.02
2018-03-16T21:26:41.333Z,46.22
2018-03-16T21:29:09.692Z,46.46
2018-03-16T21:31:38.048Z,46.33
2018-03-16T21:34:06.620Z,45.31
2018-03-16T21:36:35.028Z,46.02
2018-03-16T21:39:03.376Z,45.62
2018-03-16T21:41:31.744Z,45.48
2018-03-16T21:44:00.174Z,46.97
2018-03-16T21:46:28.531Z,45.20
2018-03-16T21:48:56.880Z,44.48
2018-03-16T21:51:25.304Z,44.09
2018-03-16T21:53:53.653Z,44.26
2018-03-16T21:56:22.016Z,44.13
2018-03-16T21:58:50.394Z,44.52
2018-03-16T22:01:18.762Z,44.92
2018-03-16T22:03:47.535Z,45.44
2018-03-16T22:06:15.901Z,45.86
2018-03-16T22:08:44.256Z,46.84
2018-03-16T22:11:12.644Z,45.60
2018-03-16T22:13:41.000Z,45.45
2018-03-16T22:16:09.360Z,45.58
2018-03-16T22:18:37.736Z,44.53
2018-03-16T22:21:06.110Z,43.67
2018-03-16T22:23:34.472Z,45.56
2018-03-16T22:26:03.250Z,46.06
2018-03-16T22:28:31.604Z,44.63
2018-03-16T22:30:59.999Z,44.41
2018-03-16T22:33:28.350Z,44.77
2018-03-16T22:35:56.714Z,44.95
2018-03-16T22:38:25.069Z,45.85
2018-03-16T22:40:53.843Z,44.66
2018-03-16T22:43:22.582Z,44.92
2018-03-16T22:45:54.206Z,45.73
2018-03-16T22:48:22.593Z,46.11
2018-03-16T22:50:50.972Z,44.07
2018-03-16T22:53:19.356Z,44.32
2018-03-16T22:55:47.734Z,44.14
2018-03-16T22:58:16.097Z,44.87
2018-03-16T23:00:44.476Z,45.10
2018-03-16T23:03:12.900Z,44.28
2018-03-16T23:05:41.267Z,45.52
2018-03-16T23:08:09.635Z,45.47
2018-03-16T23:10:38.015Z,43.71
2018-03-16T23:13:06.380Z,44.74
2018-03-16T23:15:34.791Z,44.31
2018-03-16T23:18:03.154Z,44.38
2018-03-16T23:20:31.533Z,42.93
2018-03-16T23:22:59.940Z,43.53
2018-03-16T23:25:28.317Z,43.53
2018-03-16T23:27:56.662Z,44.80
2018-03-16T23:30:25.018Z,44.90
2018-03-16T23:32:53.376Z,44.12
2018-03-16T23:35:22.127Z,44.51
2018-03-16T23:37:50.493Z,44.37
2018-03-16T23:40:18.863Z,43.74
2018-03-16T23:42:47.227Z,44.64
2018-03-16T23:45:15.647Z,44.05
2018-03-16T23:47:43.998Z,44.63
2018-03-16T23:50:12.480Z,43.65
2018-03-16T23:52:40.843Z,42.03
2018-03-16T23:55:09.218Z,44.22
2018-03-16T23:57:37.574Z,42.82
